createdAt,value
2017-08-16T00:01:10.605Z,7.93
2017-08-16T00:03:36.712Z,9.33
2017-08-16T00:06:02.768Z,12.43
2017-08-16T00:08:28.891Z,8.70
2017-08-16T00:10:54.974Z,13.93
2017-08-16T00:13:21.044Z,10.67
2017-08-16T00:15:47.118Z,11.70
2017-08-16T00:18:13.932Z,8.30
2017-08-16T00:20:40.006Z,8.90
2017-08-16T00:23:06.108Z,10.63
2017-08-16T00:25:32.925Z,8.53
2017-08-16T00:27:59.055Z,8.47
2017-08-16T00:30:25.135Z,9.90
2017-08-16T00:32:51.227Z,8.83
2017-08-16T00:35:18.093Z,9.63
2017-08-16T00:37:44.163Z,12.47
2017-08-16T00:40:10.229Z,12.30
2017-08-16T00:42:37.045Z,8.43
2017-08-16T00:45:03.106Z,9.30
2017-08-16T00:47:29.157Z,9.47
2017-08-16T00:49:55.227Z,7.47
2017-08-16T00:52:21.294Z,10.77
2017-08-16T00:54:47.371Z,8.83
2017-08-16T00:57:13.517Z,6.27
2017-08-16T00:59:39.573Z,10.77
2017-08-16T01:02:05.702Z,9.47
2017-08-16T01:04:31.798Z,7.23
2017-08-16T01:06:58.596Z,9.63
2017-08-16T01:09:24.659Z,6.33
2017-08-16T01:11:51.487Z,15.13
2017-08-16T01:14:17.557Z,18.13
2017-08-16T01:16:43.669Z,17.57
2017-08-16T01:19:09.733Z,9.37
2017-08-16T01:21:35.765Z,10.77
2017-08-16T01:24:01.848Z,13.43
2017-08-16T01:26:27.897Z,11.30
2017-08-16T01:28:54.009Z,10.47
2017-08-16T01:31:20.116Z,13.80
2017-08-16T01:33:46.177Z,10.80
2017-08-16T01:36:12.288Z,9.20
2017-08-16T01:38:39.253Z,9.90
2017-08-16T01:41:05.378Z,10.53
2017-08-16T01:43:31.460Z,11.63
2017-08-16T01:45:58.275Z,17.93
2017-08-16T01:48:24.324Z,12.47
2017-08-16T01:50:51.142Z,12.03
2017-08-16T01:53:17.200Z,13.00
2017-08-16T01:55:43.979Z,14.13
2017-08-16T01:58:10.067Z,8.53
2017-08-16T02:00:36.869Z,14.23
2017-08-16T02:03:02.960Z,8.33
2017-08-16T02:05:29.068Z,11.80
2017-08-16T02:07:55.170Z,21.13
2017-08-16T02:10:21.982Z,9.27
2017-08-16T02:12:48.096Z,15.03
2017-08-16T02:15:14.170Z,13.13
2017-08-16T02:17:41.007Z,9.97
2017-08-16T02:20:07.846Z,9.03
2017-08-16T02:22:34.656Z,10.70
2017-08-16T02:25:00.749Z,14.07
2017-08-16T02:27:26.817Z,11.67
2017-08-16T02:29:52.897Z,12.77
2017-08-16T02:32:18.967Z,15.00
2017-08-16T02:34:45.027Z,16.60
2017-08-16T02:37:11.875Z,12.43
2017-08-16T02:39:38.675Z,18.93
2017-08-16T02:42:04.750Z,10.10
2017-08-16T02:44:30.867Z,15.97
2017-08-16T02:46:56.970Z,14.80
2017-08-16T02:49:23.086Z,19.70
2017-08-16T02:51:49.189Z,16.80
2017-08-16T02:54:15.236Z,14.07
2017-08-16T02:56:41.299Z,15.03
2017-08-16T02:59:07.397Z,15.33
2017-08-16T03:01:33.462Z,12.07
2017-08-16T03:03:59.504Z,14.47
2017-08-16T03:06:25.598Z,10.47
2017-08-16T03:08:51.742Z,12.10
2017-08-16T03:11:17.813Z,14.07
2017-08-16T03:13:43.901Z,13.57
2017-08-16T03:16:10.031Z,12.33
2017-08-16T03:18:36.128Z,14.70
2017-08-16T03:21:03.140Z,11.60
2017-08-16T03:23:29.210Z,8.37
2017-08-16T03:25:55.344Z,10.33
2017-08-16T03:28:21.469Z,8.10
2017-08-16T03:30:47.573Z,13.33
2017-08-16T03:33:14.384Z,16.80
2017-08-16T03:35:40.976Z,10.87
2017-08-16T03:38:07.092Z,16.13
2017-08-16T03:40:33.186Z,12.40
2017-08-16T03:42:59.254Z,15.40
2017-08-16T03:45:25.376Z,13.27
2017-08-16T03:47:51.539Z,12.13
2017-08-16T03:50:17.585Z,17.10
2017-08-16T03:52:43.726Z,16.67
2017-08-16T03:55:10.570Z,22.33
2017-08-16T03:57:37.452Z,24.97
2017-08-16T04:00:03.602Z,17.60
2017-08-16T04:02:29.755Z,18.70
2017-08-16T04:04:55.923Z,18.03
2017-08-16T04:07:21.992Z,18.87
2017-08-16T04:09:48.162Z,10.23
2017-08-16T04:12:14.323Z,10.57
2017-08-16T04:14:40.400Z,11.20
2017-08-16T04:17:07.221Z,10.90
2017-08-16T04:19:33.416Z,9.97
2017-08-16T04:21:59.572Z,15.13
2017-08-16T04:24:25.658Z,14.03
2017-08-16T04:26:51.720Z,13.47
2017-08-16T04:29:17.871Z,10.20
2017-08-16T04:31:43.963Z,11.30
2017-08-16T04:34:10.065Z,10.30
2017-08-16T04:36:36.151Z,8.53
2017-08-16T04:39:02.972Z,8.93
2017-08-16T04:41:29.085Z,8.10
2017-08-16T04:43:55.210Z,11.33
2017-08-16T04:46:21.270Z,9.23
2017-08-16T04:48:48.067Z,9.77
2017-08-16T04:51:15.083Z,10.40
2017-08-16T04:53:41.154Z,13.90
2017-08-16T04:56:07.234Z,7.03
2017-08-16T04:58:33.325Z,8.77
2017-08-16T05:01:00.170Z,11.00
2017-08-16T05:03:26.232Z,8.30
2017-08-16T05:05:52.313Z,9.07
2017-08-16T05:08:18.411Z,6.90
2017-08-16T05:10:44.486Z,11.70
2017-08-16T05:13:11.667Z,7.13
2017-08-16T05:15:37.773Z,7.50
2017-08-16T05:18:04.579Z,8.53
2017-08-16T05:20:30.665Z,11.50
2017-08-16T05:22:56.750Z,12.70
2017-08-16T05:25:23.575Z,7.10
2017-08-16T05:27:49.717Z,7.90
2017-08-16T05:30:15.823Z,10.70
2017-08-16T05:32:41.883Z,7.70
2017-08-16T05:35:08.720Z,6.77
2017-08-16T05:37:35.569Z,8.50
2017-08-16T05:40:02.396Z,7.43
2017-08-16T05:42:28.494Z,6.90
2017-08-16T05:44:54.576Z,10.63
2017-08-16T05:47:20.680Z,11.47
2017-08-16T05:49:47.546Z,8.17
2017-08-16T05:52:13.609Z,8.67
2017-08-16T05:54:39.670Z,6.53
2017-08-16T05:57:06.514Z,8.63
2017-08-16T05:59:33.328Z,9.83
2017-08-16T06:01:59.434Z,7.33
2017-08-16T06:04:25.497Z,8.70
2017-08-16T06:06:51.590Z,7.90
2017-08-16T06:09:17.748Z,11.03
2017-08-16T06:11:43.832Z,6.97
2017-08-16T06:14:09.904Z,9.30
2017-08-16T06:16:36.020Z,11.60
2017-08-16T06:19:02.100Z,5.67
2017-08-16T06:21:28.156Z,9.70
2017-08-16T06:23:54.249Z,7.53
2017-08-16T06:26:20.304Z,9.03
2017-08-16T06:28:46.362Z,9.87
2017-08-16T06:31:13.198Z,14.97
2017-08-16T06:33:39.288Z,10.73
2017-08-16T06:36:05.395Z,6.10
2017-08-16T06:38:31.486Z,9.13
2017-08-16T06:40:58.326Z,10.67
2017-08-16T06:43:24.442Z,11.00
2017-08-16T06:45:50.518Z,13.33
2017-08-16T06:48:16.574Z,7.67
2017-08-16T06:50:42.673Z,9.23
2017-08-16T06:53:08.755Z,11.30
2017-08-16T06:55:35.551Z,6.83
2017-08-16T06:58:01.636Z,8.37
2017-08-16T07:00:27.708Z,6.70
2017-08-16T07:02:53.795Z,7.07
2017-08-16T07:05:19.888Z,18.20
2017-08-16T07:07:45.947Z,9.57
2017-08-16T07:10:12.033Z,10.90
2017-08-16T07:12:38.152Z,7.70
2017-08-16T07:15:04.247Z,8.30
2017-08-16T07:17:30.299Z,13.30
2017-08-16T07:19:56.404Z,7.80
2017-08-16T07:22:22.480Z,5.40
2017-08-16T07:24:49.303Z,6.93
2017-08-16T07:27:15.365Z,31.43
2017-08-16T07:29:41.416Z,9.07
2017-08-16T07:32:07.481Z,9.50
2017-08-16T07:34:33.600Z,9.80
2017-08-16T07:36:59.650Z,9.47
2017-08-16T07:39:26.443Z,7.17
2017-08-16T07:41:52.547Z,5.50
2017-08-16T07:44:18.618Z,8.13
2017-08-16T07:46:44.665Z,8.13
2017-08-16T07:49:11.513Z,6.73
2017-08-16T07:51:38.315Z,7.10
2017-08-16T07:54:04.373Z,10.97
2017-08-16T07:56:31.193Z,8.87
2017-08-16T07:58:57.233Z,10.73
2017-08-16T08:01:23.309Z,9.20
2017-08-16T08:03:49.387Z,10.20
2017-08-16T08:06:16.876Z,6.13
2017-08-16T08:08:42.942Z,6.83
2017-08-16T08:11:09.069Z,5.90
2017-08-16T08:13:35.113Z,8.20
2017-08-16T08:16:01.213Z,5.10
2017-08-16T08:18:27.432Z,8.47
2017-08-16T08:20:53.514Z,7.40
2017-08-16T08:23:20.345Z,8.30
2017-08-16T08:25:47.186Z,6.03
2017-08-16T08:28:13.965Z,8.70
2017-08-16T08:30:40.011Z,5.97
2017-08-16T08:33:06.085Z,6.53
2017-08-16T08:35:32.890Z,5.30
2017-08-16T08:37:58.950Z,8.70
2017-08-16T08:40:25.811Z,5.53
2017-08-16T08:42:51.860Z,9.00
2017-08-16T08:45:17.920Z,6.80
2017-08-16T08:47:44.044Z,10.23
2017-08-16T08:50:10.092Z,6.43
2017-08-16T08:52:36.908Z,5.07
2017-08-16T08:55:02.991Z,6.33
2017-08-16T08:57:29.062Z,7.83
2017-08-16T08:59:55.146Z,4.67
2017-08-16T09:02:21.239Z,8.40
2017-08-16T09:04:48.028Z,8.00
2017-08-16T09:07:14.096Z,5.00
2017-08-16T09:09:40.195Z,5.53
2017-08-16T09:12:06.292Z,6.43
2017-08-16T09:14:32.378Z,5.20
2017-08-16T09:16:59.220Z,6.50
2017-08-16T09:19:26.029Z,11.13
2017-08-16T09:21:52.078Z,5.17
2017-08-16T09:24:18.187Z,7.80
2017-08-16T09:26:44.270Z,9.23
2017-08-16T09:29:10.338Z,5.93
2017-08-16T09:31:36.458Z,4.50
2017-08-16T09:34:02.542Z,5.20
2017-08-16T09:36:35.319Z,8.53
2017-08-16T09:39:01.415Z,5.00
2017-08-16T09:41:27.507Z,9.53
2017-08-16T09:43:53.578Z,8.30
2017-08-16T09:46:20.420Z,5.70
2017-08-16T09:48:47.242Z,8.00
2017-08-16T09:51:13.280Z,11.07
2017-08-16T09:53:39.585Z,5.10
2017-08-16T09:56:05.626Z,4.67
2017-08-16T09:58:31.704Z,4.77
2017-08-16T10:00:57.836Z,3.33
2017-08-16T10:03:23.895Z,2.80
2017-08-16T10:05:49.959Z,2.27
2017-08-16T10:08:16.183Z,2.17
2017-08-16T10:10:42.977Z,2.67
2017-08-16T10:13:09.046Z,4.47
2017-08-16T10:15:35.926Z,2.90
2017-08-16T10:18:02.084Z,3.40
2017-08-16T10:20:28.176Z,2.70
2017-08-16T10:22:54.274Z,3.33
2017-08-16T10:25:20.338Z,3.43
2017-08-16T10:27:46.400Z,7.00
2017-08-16T10:30:12.492Z,3.93
2017-08-16T10:32:38.551Z,3.73
2017-08-16T10:35:04.634Z,2.63
2017-08-16T10:37:30.743Z,2.83
2017-08-16T10:39:56.790Z,3.80
2017-08-16T10:42:22.864Z,3.13
2017-08-16T10:44:49.730Z,1.93
2017-08-16T10:47:15.808Z,3.30
2017-08-16T10:49:41.878Z,3.47
2017-08-16T10:52:08.091Z,2.50
2017-08-16T10:54:34.274Z,2.43
2017-08-16T10:57:00.354Z,2.33
2017-08-16T10:59:26.455Z,2.80
2017-08-16T11:01:52.564Z,2.07
2017-08-16T11:04:18.642Z,5.07
2017-08-16T11:06:44.717Z,2.27
2017-08-16T11:09:10.779Z,4.20
2017-08-16T11:11:37.652Z,1.70
2017-08-16T11:14:04.307Z,3.30
2017-08-16T11:16:30.414Z,2.43
2017-08-16T11:18:56.504Z,2.60
2017-08-16T11:21:23.354Z,2.50
2017-08-16T11:23:50.141Z,7.30
2017-08-16T11:26:16.218Z,5.40
2017-08-16T11:28:43.161Z,4.97
2017-08-16T11:31:10.020Z,4.73
2017-08-16T11:33:36.242Z,4.47
2017-08-16T11:36:02.364Z,5.00
2017-08-16T11:38:29.163Z,6.03
2017-08-16T11:40:55.562Z,6.33
2017-08-16T11:43:21.664Z,5.47
2017-08-16T11:45:48.574Z,10.70
2017-08-16T11:48:14.703Z,6.90
2017-08-16T11:50:40.856Z,5.20
2017-08-16T11:53:07.764Z,4.80
2017-08-16T11:55:33.928Z,5.73
2017-08-16T11:58:01.066Z,5.60
2017-08-16T12:00:27.944Z,5.97
2017-08-16T12:02:54.108Z,5.93
2017-08-16T12:05:20.310Z,5.57
2017-08-16T12:07:46.557Z,6.00
2017-08-16T12:10:12.750Z,3.93
2017-08-16T12:12:38.932Z,4.60
2017-08-16T12:15:05.104Z,5.00
2017-08-16T12:17:31.205Z,5.20
2017-08-16T12:19:57.315Z,3.53
2017-08-16T12:22:23.382Z,5.00
2017-08-16T12:24:49.590Z,3.20
2017-08-16T12:27:15.766Z,3.23
2017-08-16T12:29:41.908Z,3.83
2017-08-16T12:32:07.960Z,2.27
2017-08-16T12:34:34.112Z,3.00
2017-08-16T12:37:00.996Z,3.03
2017-08-16T12:39:27.069Z,3.03
2017-08-16T12:41:53.951Z,2.67
2017-08-16T12:44:20.093Z,2.20
2017-08-16T12:46:46.211Z,2.37
2017-08-16T12:49:12.342Z,4.93
2017-08-16T12:51:38.402Z,3.03
2017-08-16T12:54:04.486Z,3.03
2017-08-16T12:56:30.576Z,2.83
2017-08-16T12:58:57.372Z,4.00
2017-08-16T13:01:23.477Z,2.73
2017-08-16T13:03:49.738Z,2.33
2017-08-16T13:06:15.797Z,2.80
2017-08-16T13:08:42.639Z,2.03
2017-08-16T13:11:09.518Z,3.37
2017-08-16T13:13:35.612Z,1.90
2017-08-16T13:16:02.430Z,3.53
2017-08-16T13:18:28.580Z,2.43
2017-08-16T13:20:56.351Z,2.57
2017-08-16T13:23:23.271Z,2.47
2017-08-16T13:25:49.388Z,2.43
2017-08-16T13:28:15.503Z,2.73
2017-08-16T13:30:41.573Z,2.10
2017-08-16T13:33:07.673Z,2.70
2017-08-16T13:35:33.789Z,2.10
2017-08-16T13:37:59.917Z,4.60
2017-08-16T13:40:26.041Z,1.90
2017-08-16T13:42:52.127Z,2.00
2017-08-16T13:45:18.897Z,1.80
2017-08-16T13:47:45.009Z,2.33
2017-08-16T13:50:11.076Z,1.90
2017-08-16T13:52:37.181Z,3.20
2017-08-16T13:55:03.273Z,1.63
2017-08-16T13:57:29.371Z,2.97
2017-08-16T13:59:56.175Z,1.63
2017-08-16T14:02:22.291Z,1.43
2017-08-16T14:04:48.385Z,1.90
2017-08-16T14:07:14.450Z,1.30
2017-08-16T14:09:40.549Z,1.67
2017-08-16T14:12:06.687Z,1.70
2017-08-16T14:14:32.815Z,1.63
2017-08-16T14:16:58.940Z,2.00
2017-08-16T14:19:25.036Z,1.43
2017-08-16T14:21:51.164Z,2.60
2017-08-16T14:24:17.318Z,1.47
2017-08-16T14:26:43.440Z,1.23
2017-08-16T14:29:09.846Z,1.67
2017-08-16T14:31:35.928Z,1.40
2017-08-16T14:34:02.022Z,1.73
2017-08-16T14:36:28.147Z,1.60
2017-08-16T14:38:56.872Z,1.50
2017-08-16T14:41:34.121Z,2.00
2017-08-16T14:46:51.506Z,2.50
2017-08-16T14:49:17.673Z,2.53
2017-08-16T14:51:43.755Z,2.23
2017-08-16T14:54:09.910Z,2.57
2017-08-16T14:56:36.035Z,2.17
2017-08-16T14:59:02.872Z,2.30
2017-08-16T15:01:29.762Z,1.97
2017-08-16T15:03:55.952Z,2.10
2017-08-16T15:06:22.784Z,2.20
2017-08-16T15:08:48.905Z,2.67
2017-08-16T15:11:15.748Z,2.20
2017-08-16T15:13:42.564Z,2.23
2017-08-16T15:16:08.681Z,1.80
2017-08-16T15:18:34.792Z,6.33
2017-08-16T15:21:00.876Z,2.67
2017-08-16T15:23:27.738Z,1.70
2017-08-16T15:25:53.825Z,1.73
2017-08-16T15:28:19.892Z,2.03
2017-08-16T15:30:46.001Z,3.07
2017-08-16T15:33:12.853Z,2.03
2017-08-16T15:35:38.943Z,3.23
2017-08-16T15:38:05.080Z,2.70
2017-08-16T15:40:31.236Z,3.33
2017-08-16T15:42:57.419Z,2.63
2017-08-16T15:45:23.614Z,3.17
2017-08-16T15:47:56.577Z,3.63
2017-08-16T15:50:22.800Z,4.83
2017-08-16T15:52:48.941Z,2.90
2017-08-16T15:55:15.090Z,2.87
2017-08-16T15:57:41.206Z,2.97
2017-08-16T16:00:07.330Z,4.83
2017-08-16T16:02:33.408Z,4.80
2017-08-16T16:04:59.586Z,3.03
2017-08-16T16:07:25.692Z,3.33
2017-08-16T16:09:51.798Z,3.67
2017-08-16T16:12:18.680Z,3.50
2017-08-16T16:14:44.982Z,5.43
2017-08-16T16:17:11.296Z,2.70
2017-08-16T16:19:37.522Z,2.53
2017-08-16T16:22:03.738Z,2.60
2017-08-16T16:24:29.868Z,2.23
2017-08-16T16:26:56.159Z,4.47
2017-08-16T16:29:22.286Z,1.70
2017-08-16T16:31:48.448Z,4.07
2017-08-16T16:34:14.633Z,2.67
2017-08-16T16:36:40.790Z,2.77
2017-08-16T16:39:06.957Z,2.70
2017-08-16T16:41:33.146Z,2.63
2017-08-16T16:43:59.399Z,8.10
2017-08-16T16:46:25.525Z,4.10
2017-08-16T16:48:51.724Z,5.30
2017-08-16T16:51:17.974Z,2.40
2017-08-16T16:53:44.872Z,2.70
2017-08-16T16:56:11.087Z,4.93
2017-08-16T16:58:37.205Z,2.77
2017-08-16T17:01:03.491Z,2.63
2017-08-16T17:03:29.696Z,3.20
2017-08-16T17:05:55.873Z,3.33
2017-08-16T17:08:23.743Z,3.27
2017-08-16T17:10:50.595Z,4.70
2017-08-16T17:13:17.433Z,3.83
2017-08-16T17:15:44.269Z,3.10
2017-08-16T17:18:10.505Z,3.20
2017-08-16T17:20:37.347Z,5.30
2017-08-16T17:23:04.152Z,3.20
2017-08-16T17:25:30.245Z,3.53
2017-08-16T17:27:56.313Z,4.13
2017-08-16T17:30:22.375Z,3.63
2017-08-16T17:32:49.195Z,5.40
2017-08-16T17:35:15.301Z,6.03
2017-08-16T17:37:41.403Z,3.67
2017-08-16T17:40:07.493Z,4.63
2017-08-16T17:42:35.378Z,4.10
2017-08-16T17:45:01.522Z,6.80
2017-08-16T17:47:27.674Z,4.97
2017-08-16T17:49:53.736Z,4.87
2017-08-16T17:52:20.547Z,5.30
2017-08-16T17:54:46.684Z,7.47
2017-08-16T17:57:17.848Z,5.60
2017-08-16T17:59:44.001Z,5.03
2017-08-16T18:02:10.240Z,5.23
2017-08-16T18:04:36.379Z,6.00
2017-08-16T18:07:02.447Z,6.30
2017-08-16T18:09:29.631Z,6.23
2017-08-16T18:11:55.934Z,8.17
2017-08-16T18:14:22.810Z,6.73
2017-08-16T18:16:48.893Z,7.17
2017-08-16T18:19:17.430Z,13.37
2017-08-16T18:21:44.884Z,7.00
2017-08-16T18:24:14.838Z,8.00
2017-08-16T18:26:41.013Z,7.03
2017-08-16T18:29:07.147Z,7.33
2017-08-16T18:31:33.301Z,6.87
2017-08-16T18:33:59.676Z,7.43
2017-08-16T18:36:26.528Z,8.33
2017-08-16T18:38:53.399Z,8.60
2017-08-16T18:41:19.685Z,6.70
2017-08-16T18:43:45.759Z,8.00
2017-08-16T18:46:11.911Z,11.57
2017-08-16T18:48:38.045Z,11.80
2017-08-16T18:51:04.977Z,6.90
2017-08-16T18:53:31.099Z,7.87
2017-08-16T18:55:57.255Z,10.63
2017-08-16T18:58:23.565Z,7.77
2017-08-16T19:00:49.958Z,7.23
2017-08-16T19:03:16.130Z,7.93
2017-08-16T19:05:42.259Z,6.97
2017-08-16T19:08:08.393Z,11.40
2017-08-16T19:10:34.488Z,10.80
2017-08-16T19:13:00.623Z,10.20
2017-08-16T19:15:26.809Z,18.47
2017-08-16T19:17:53.672Z,13.47
2017-08-16T19:20:20.683Z,8.17
2017-08-16T19:22:46.826Z,10.53
2017-08-16T19:25:12.930Z,11.13
2017-08-16T19:27:39.261Z,10.97
2017-08-16T19:30:05.395Z,16.03
2017-08-16T19:32:32.299Z,12.90
2017-08-16T19:34:58.455Z,12.40
2017-08-16T19:37:24.691Z,14.20
2017-08-16T19:39:51.520Z,19.40
2017-08-16T19:42:17.670Z,13.43
2017-08-16T19:44:44.548Z,26.73
2017-08-16T19:47:10.644Z,13.93
2017-08-16T19:49:37.494Z,52.23
2017-08-16T19:52:04.347Z,61.43
2017-08-16T19:54:30.474Z,23.87
2017-08-16T19:56:56.615Z,18.00
2017-08-16T19:59:22.716Z,22.23
2017-08-16T20:01:49.629Z,13.37
2017-08-16T20:04:15.726Z,14.23
2017-08-16T20:06:41.845Z,14.00
2017-08-16T20:09:07.942Z,15.23
2017-08-16T20:11:34.100Z,16.47
2017-08-16T20:14:00.266Z,13.07
2017-08-16T20:16:26.329Z,14.50
2017-08-16T20:18:52.411Z,16.50
2017-08-16T20:21:19.477Z,14.20
2017-08-16T20:23:46.373Z,16.83
2017-08-16T20:26:12.485Z,17.70
2017-08-16T20:28:38.577Z,23.37
2017-08-16T20:31:04.641Z,20.77
2017-08-16T20:33:30.756Z,16.70
2017-08-16T20:35:56.862Z,20.13
2017-08-16T20:38:23.689Z,23.10
2017-08-16T20:40:50.506Z,19.23
2017-08-16T20:43:16.609Z,18.73
2017-08-16T20:45:43.028Z,30.80
2017-08-16T20:48:09.078Z,28.13
2017-08-16T20:50:35.176Z,42.10
2017-08-16T20:53:01.291Z,21.33
2017-08-16T20:55:27.406Z,22.47
2017-08-16T20:57:54.233Z,20.03
2017-08-16T21:00:20.328Z,23.87
2017-08-16T21:02:46.435Z,24.20
2017-08-16T21:05:12.546Z,21.73
2017-08-16T21:07:38.610Z,19.60
2017-08-16T21:10:04.724Z,27.30
2017-08-16T21:12:30.849Z,31.07
2017-08-16T21:14:56.943Z,25.37
2017-08-16T21:17:23.065Z,29.07
2017-08-16T21:19:49.874Z,25.67
2017-08-16T21:22:15.959Z,26.97
2017-08-16T21:24:42.062Z,26.67
2017-08-16T21:27:08.153Z,33.10
2017-08-16T21:29:34.289Z,29.33
2017-08-16T21:32:00.375Z,32.10
2017-08-16T21:34:26.493Z,33.53
2017-08-16T21:36:52.560Z,29.80
2017-08-16T21:39:18.652Z,37.60
2017-08-16T21:41:44.798Z,29.70
2017-08-16T21:44:10.934Z,34.40
2017-08-16T21:46:37.392Z,28.17
2017-08-16T21:49:04.236Z,26.37
2017-08-16T21:51:31.074Z,29.80
2017-08-16T21:53:57.916Z,26.73
2017-08-16T21:56:24.757Z,26.23
2017-08-16T21:58:51.603Z,30.50
2017-08-16T22:01:18.454Z,24.73
2017-08-16T22:03:45.373Z,23.70
2017-08-16T22:06:11.498Z,23.80
2017-08-16T22:08:37.555Z,19.70
2017-08-16T22:11:04.398Z,24.77
2017-08-16T22:13:31.265Z,24.50
2017-08-16T22:15:57.416Z,26.13
2017-08-16T22:18:23.492Z,34.00
2017-08-16T22:20:49.647Z,26.90
2017-08-16T22:23:15.754Z,25.00
2017-08-16T22:25:42.008Z,21.73
2017-08-16T22:28:08.584Z,29.27
2017-08-16T22:30:34.669Z,21.90
2017-08-16T22:33:00.729Z,20.53
2017-08-16T22:35:26.799Z,22.77
2017-08-16T22:37:52.891Z,25.13
2017-08-16T22:40:18.977Z,25.60
2017-08-16T22:42:45.163Z,20.17
2017-08-16T22:45:12.394Z,26.60
2017-08-16T22:47:38.486Z,22.70
2017-08-16T22:50:04.577Z,25.07
2017-08-16T22:52:30.679Z,22.20
2017-08-16T22:54:56.741Z,31.87
2017-08-16T22:57:23.017Z,23.60
2017-08-16T22:59:49.109Z,24.60
2017-08-16T23:02:15.192Z,23.20
2017-08-16T23:04:42.175Z,26.80
2017-08-16T23:07:08.273Z,21.20
2017-08-16T23:09:35.102Z,22.63
2017-08-16T23:12:02.314Z,22.77
2017-08-16T23:14:28.392Z,19.70
2017-08-16T23:16:55.204Z,19.53
2017-08-16T23:19:22.639Z,24.27
2017-08-16T23:21:48.721Z,21.33
2017-08-16T23:24:15.560Z,19.27
2017-08-16T23:26:42.719Z,21.30
2017-08-16T23:29:08.789Z,22.03
2017-08-16T23:31:34.870Z,25.87
2017-08-16T23:34:00.960Z,24.77
2017-08-16T23:36:27.030Z,22.13
2017-08-16T23:38:53.190Z,19.37
2017-08-16T23:41:19.270Z,18.53
2017-08-16T23:43:45.358Z,19.83
2017-08-16T23:46:11.455Z,19.23
2017-08-16T23:48:37.981Z,22.47
2017-08-16T23:51:04.087Z,22.43
2017-08-16T23:53:30.149Z,20.53
2017-08-16T23:55:56.507Z,21.73
2017-08-16T23:58:22.608Z,20.30
